sensor_id;sensor_type;location;lat;lon;timestamp;P1;durP1;ratioP1;P2;durP2;ratioP2
67640;SDS011;54434;50.096;20.082;2022-11-11T00:02:00;70.90;;;30.20;;
67640;SDS011;54434;50.096;20.082;2022-11-11T00:04:54;59.20;;;27.90;;
67640;SDS011;54434;50.096;20.082;2022-11-11T00:07:49;69.00;;;31.00;;
67640;SDS011;54434;50.096;20.082;2022-11-11T00:10:50;66.30;;;29.00;;
67640;SDS011;54434;50.096;20.082;2022-11-11T00:13:45;66.70;;;29.70;;
67640;SDS011;54434;50.096;20.082;2022-11-11T00:16:39;68.50;;;30.00;;
67640;SDS011;54434;50.096;20.082;2022-11-11T00:19:51;60.90;;;27.00;;
67640;SDS011;54434;50.096;20.082;2022-11-11T00:23:03;63.10;;;27.90;;
67640;SDS011;54434;50.096;20.082;2022-11-11T00:26:33;59.90;;;27.40;;
67640;SDS011;54434;50.096;20.082;2022-11-11T00:29:31;73.50;;;30.00;;
67640;SDS011;54434;50.096;20.082;2022-11-11T00:32:25;75.20;;;31.70;;
67640;SDS011;54434;50.096;20.082;2022-11-11T00:35:23;77.00;;;32.90;;
67640;SDS011;54434;50.096;20.082;2022-11-11T00:38:44;73.60;;;32.20;;
67640;SDS011;54434;50.096;20.082;2022-11-11T00:41:39;89.30;;;34.30;;
67640;SDS011;54434;50.096;20.082;2022-11-11T00:44:34;81.00;;;34.50;;
67640;SDS011;54434;50.096;20.082;2022-11-11T00:47:29;82.50;;;35.60;;
67640;SDS011;54434;50.096;20.082;2022-11-11T00:50:41;79.20;;;35.00;;
67640;SDS011;54434;50.096;20.082;2022-11-11T00:53:51;83.00;;;35.20;;
67640;SDS011;54434;50.096;20.082;2022-11-11T00:56:46;84.10;;;35.50;;
67640;SDS011;54434;50.096;20.082;2022-11-11T00:59:41;86.00;;;37.20;;
67640;SDS011;54434;50.096;20.082;2022-11-11T01:02:36;72.00;;;34.50;;
67640;SDS011;54434;50.096;20.082;2022-11-11T01:05:31;75.50;;;34.30;;
67640;SDS011;54434;50.096;20.082;2022-11-11T01:08:28;89.90;;;37.10;;
67640;SDS011;54434;50.096;20.082;2022-11-11T01:11:24;79.70;;;35.20;;
67640;SDS011;54434;50.096;20.082;2022-11-11T01:14:19;79.50;;;34.80;;
67640;SDS011;54434;50.096;20.082;2022-11-11T01:17:13;85.00;;;34.90;;
67640;SDS011;54434;50.096;20.082;2022-11-11T01:20:10;78.70;;;34.00;;
67640;SDS011;54434;50.096;20.082;2022-11-11T01:23:06;72.80;;;32.50;;
67640;SDS011;54434;50.096;20.082;2022-11-11T01:26:06;74.10;;;32.60;;
67640;SDS011;54434;50.096;20.082;2022-11-11T01:29:02;74.00;;;33.10;;
67640;SDS011;54434;50.096;20.082;2022-11-11T01:31:57;75.70;;;32.10;;
67640;SDS011;54434;50.096;20.082;2022-11-11T01:34:52;72.00;;;31.00;;
67640;SDS011;54434;50.096;20.082;2022-11-11T01:37:46;79.50;;;32.40;;
67640;SDS011;54434;50.096;20.082;2022-11-11T01:40:46;71.80;;;31.20;;
67640;SDS011;54434;50.096;20.082;2022-11-11T01:43:41;67.30;;;29.80;;
67640;SDS011;54434;50.096;20.082;2022-11-11T01:46:39;63.00;;;29.40;;
67640;SDS011;54434;50.096;20.082;2022-11-11T01:49:39;76.30;;;32.80;;
67640;SDS011;54434;50.096;20.082;2022-11-11T01:52:43;78.70;;;33.50;;
67640;SDS011;54434;50.096;20.082;2022-11-11T01:55:38;72.20;;;33.70;;
67640;SDS011;54434;50.096;20.082;2022-11-11T01:58:33;75.00;;;33.90;;
67640;SDS011;54434;50.096;20.082;2022-11-11T02:01:28;71.60;;;33.20;;
67640;SDS011;54434;50.096;20.082;2022-11-11T02:04:25;65.60;;;28.90;;
67640;SDS011;54434;50.096;20.082;2022-11-11T02:07:38;62.50;;;28.90;;
67640;SDS011;54434;50.096;20.082;2022-11-11T02:10:34;64.50;;;29.50;;
67640;SDS011;54434;50.096;20.082;2022-11-11T02:13:30;65.80;;;27.60;;
67640;SDS011;54434;50.096;20.082;2022-11-11T02:16:43;59.90;;;26.60;;
67640;SDS011;54434;50.096;20.082;2022-11-11T02:19:45;62.00;;;28.30;;
67640;SDS011;54434;50.096;20.082;2022-11-11T02:22:47;59.10;;;28.70;;
67640;SDS011;54434;50.096;20.082;2022-11-11T02:25:45;67.80;;;29.80;;
67640;SDS011;54434;50.096;20.082;2022-11-11T02:28:43;59.00;;;28.60;;
67640;SDS011;54434;50.096;20.082;2022-11-11T02:31:38;60.00;;;29.00;;
67640;SDS011;54434;50.096;20.082;2022-11-11T02:34:34;59.80;;;27.90;;
67640;SDS011;54434;50.096;20.082;2022-11-11T02:37:29;59.80;;;28.60;;
67640;SDS011;54434;50.096;20.082;2022-11-11T02:40:28;64.30;;;29.20;;
67640;SDS011;54434;50.096;20.082;2022-11-11T02:43:27;76.70;;;32.20;;
67640;SDS011;54434;50.096;20.082;2022-11-11T02:46:22;90.60;;;34.60;;
67640;SDS011;54434;50.096;20.082;2022-11-11T02:49:16;97.90;;;37.20;;
67640;SDS011;54434;50.096;20.082;2022-11-11T02:52:11;101.20;;;39.50;;
67640;SDS011;54434;50.096;20.082;2022-11-11T02:55:07;116.10;;;40.40;;
67640;SDS011;54434;50.096;20.082;2022-11-11T02:58:02;98.30;;;38.70;;
67640;SDS011;54434;50.096;20.082;2022-11-11T03:00:57;98.50;;;39.10;;
67640;SDS011;54434;50.096;20.082;2022-11-11T03:03:52;93.60;;;38.80;;
67640;SDS011;54434;50.096;20.082;2022-11-11T03:06:46;91.90;;;37.30;;
67640;SDS011;54434;50.096;20.082;2022-11-11T03:09:41;80.70;;;35.70;;
67640;SDS011;54434;50.096;20.082;2022-11-11T03:12:36;78.90;;;32.60;;
67640;SDS011;54434;50.096;20.082;2022-11-11T03:15:31;70.00;;;34.90;;
67640;SDS011;54434;50.096;20.082;2022-11-11T03:18:25;69.10;;;33.50;;
67640;SDS011;54434;50.096;20.082;2022-11-11T03:21:20;67.10;;;31.00;;
67640;SDS011;54434;50.096;20.082;2022-11-11T03:24:35;59.10;;;28.40;;
67640;SDS011;54434;50.096;20.082;2022-11-11T03:27:48;55.60;;;27.10;;
67640;SDS011;54434;50.096;20.082;2022-11-11T03:30:43;49.60;;;25.20;;
67640;SDS011;54434;50.096;20.082;2022-11-11T03:33:41;48.10;;;26.40;;
67640;SDS011;54434;50.096;20.082;2022-11-11T03:36:36;52.50;;;26.40;;
67640;SDS011;54434;50.096;20.082;2022-11-11T03:39:45;52.50;;;24.20;;
67640;SDS011;54434;50.096;20.082;2022-11-11T03:42:39;50.30;;;25.40;;
67640;SDS011;54434;50.096;20.082;2022-11-11T03:45:34;49.10;;;26.80;;
67640;SDS011;54434;50.096;20.082;2022-11-11T03:48:30;50.60;;;25.70;;
67640;SDS011;54434;50.096;20.082;2022-11-11T03:51:25;53.10;;;24.60;;
67640;SDS011;54434;50.096;20.082;2022-11-11T03:54:20;49.20;;;24.60;;
67640;SDS011;54434;50.096;20.082;2022-11-11T03:57:14;48.10;;;24.90;;
67640;SDS011;54434;50.096;20.082;2022-11-11T04:00:26;43.60;;;22.80;;
67640;SDS011;54434;50.096;20.082;2022-11-11T04:03:21;48.00;;;23.50;;
67640;SDS011;54434;50.096;20.082;2022-11-11T04:06:33;48.80;;;24.30;;
67640;SDS011;54434;50.096;20.082;2022-11-11T04:09:45;53.60;;;23.50;;
67640;SDS011;54434;50.096;20.082;2022-11-11T04:12:58;49.30;;;24.00;;
67640;SDS011;54434;50.096;20.082;2022-11-11T04:16:12;42.90;;;22.70;;
67640;SDS011;54434;50.096;20.082;2022-11-11T04:19:06;44.20;;;23.10;;
67640;SDS011;54434;50.096;20.082;2022-11-11T04:22:19;46.40;;;23.40;;
67640;SDS011;54434;50.096;20.082;2022-11-11T04:25:13;50.20;;;24.20;;
67640;SDS011;54434;50.096;20.082;2022-11-11T04:28:32;44.20;;;22.30;;
67640;SDS011;54434;50.096;20.082;2022-11-11T04:31:44;45.80;;;23.30;;
67640;SDS011;54434;50.096;20.082;2022-11-11T04:34:54;44.20;;;21.50;;
67640;SDS011;54434;50.096;20.082;2022-11-11T04:37:50;45.20;;;22.10;;
67640;SDS011;54434;50.096;20.082;2022-11-11T04:41:05;41.30;;;21.20;;
67640;SDS011;54434;50.096;20.082;2022-11-11T04:44:04;46.40;;;22.00;;
67640;SDS011;54434;50.096;20.082;2022-11-11T04:47:16;45.10;;;22.80;;
67640;SDS011;54434;50.096;20.082;2022-11-11T04:50:11;43.60;;;21.30;;
67640;SDS011;54434;50.096;20.082;2022-11-11T04:53:08;42.60;;;21.80;;
67640;SDS011;54434;50.096;20.082;2022-11-11T04:56:04;39.60;;;20.50;;
67640;SDS011;54434;50.096;20.082;2022-11-11T04:59:17;43.10;;;21.30;;
67640;SDS011;54434;50.096;20.082;2022-11-11T05:02:12;41.10;;;21.90;;
67640;SDS011;54434;50.096;20.082;2022-11-11T05:05:24;41.50;;;22.10;;
67640;SDS011;54434;50.096;20.082;2022-11-11T05:08:19;40.60;;;21.80;;
67640;SDS011;54434;50.096;20.082;2022-11-11T05:11:33;40.60;;;21.70;;
67640;SDS011;54434;50.096;20.082;2022-11-11T05:14:28;38.90;;;20.60;;
67640;SDS011;54434;50.096;20.082;2022-11-11T05:17:40;40.50;;;21.00;;
67640;SDS011;54434;50.096;20.082;2022-11-11T05:21:01;43.80;;;22.20;;
67640;SDS011;54434;50.096;20.082;2022-11-11T05:24:14;38.90;;;21.10;;
67640;SDS011;54434;50.096;20.082;2022-11-11T05:27:27;37.30;;;20.50;;
67640;SDS011;54434;50.096;20.082;2022-11-11T05:30:22;43.60;;;21.40;;
67640;SDS011;54434;50.096;20.082;2022-11-11T05:33:17;38.30;;;20.30;;
67640;SDS011;54434;50.096;20.082;2022-11-11T05:36:12;41.60;;;20.50;;
67640;SDS011;54434;50.096;20.082;2022-11-11T05:39:07;37.30;;;20.40;;
67640;SDS011;54434;50.096;20.082;2022-11-11T05:42:01;43.50;;;20.20;;
67640;SDS011;54434;50.096;20.082;2022-11-11T05:44:56;38.00;;;20.90;;
67640;SDS011;54434;50.096;20.082;2022-11-11T05:47:50;40.00;;;20.60;;
67640;SDS011;54434;50.096;20.082;2022-11-11T05:50:45;37.90;;;20.00;;
67640;SDS011;54434;50.096;20.082;2022-11-11T05:53:39;40.00;;;20.80;;
67640;SDS011;54434;50.096;20.082;2022-11-11T05:56:34;36.60;;;20.00;;
67640;SDS011;54434;50.096;20.082;2022-11-11T05:59:29;39.70;;;20.80;;
67640;SDS011;54434;50.096;20.082;2022-11-11T06:02:23;39.80;;;20.10;;
67640;SDS011;54434;50.096;20.082;2022-11-11T06:05:18;39.10;;;19.80;;
67640;SDS011;54434;50.096;20.082;2022-11-11T06:08:13;37.70;;;20.10;;
67640;SDS011;54434;50.096;20.082;2022-11-11T06:11:07;42.70;;;21.50;;
67640;SDS011;54434;50.096;20.082;2022-11-11T06:14:02;37.10;;;20.60;;
67640;SDS011;54434;50.096;20.082;2022-11-11T06:16:57;35.60;;;19.80;;
67640;SDS011;54434;50.096;20.082;2022-11-11T06:19:51;38.20;;;20.30;;
67640;SDS011;54434;50.096;20.082;2022-11-11T06:22:46;48.80;;;23.60;;
67640;SDS011;54434;50.096;20.082;2022-11-11T06:25:49;42.60;;;21.80;;
67640;SDS011;54434;50.096;20.082;2022-11-11T06:29:01;35.90;;;20.30;;
67640;SDS011;54434;50.096;20.082;2022-11-11T06:31:55;47.20;;;22.00;;
67640;SDS011;54434;50.096;20.082;2022-11-11T06:34:50;43.50;;;22.30;;
67640;SDS011;54434;50.096;20.082;2022-11-11T06:37:44;43.30;;;23.10;;
67640;SDS011;54434;50.096;20.082;2022-11-11T06:40:40;41.30;;;21.80;;
67640;SDS011;54434;50.096;20.082;2022-11-11T06:43:35;41.80;;;21.00;;
67640;SDS011;54434;50.096;20.082;2022-11-11T06:46:30;41.20;;;21.50;;
67640;SDS011;54434;50.096;20.082;2022-11-11T06:49:25;41.00;;;21.70;;
67640;SDS011;54434;50.096;20.082;2022-11-11T06:52:22;44.30;;;23.00;;
67640;SDS011;54434;50.096;20.082;2022-11-11T06:55:16;38.40;;;21.20;;
67640;SDS011;54434;50.096;20.082;2022-11-11T06:58:13;41.80;;;22.70;;
67640;SDS011;54434;50.096;20.082;2022-11-11T07:01:09;38.50;;;21.40;;
67640;SDS011;54434;50.096;20.082;2022-11-11T07:04:06;41.00;;;21.90;;
67640;SDS011;54434;50.096;20.082;2022-11-11T07:07:01;44.60;;;21.60;;
67640;SDS011;54434;50.096;20.082;2022-11-11T07:09:55;40.50;;;21.00;;
67640;SDS011;54434;50.096;20.082;2022-11-11T07:12:50;41.90;;;22.10;;
67640;SDS011;54434;50.096;20.082;2022-11-11T07:15:45;38.10;;;20.60;;
67640;SDS011;54434;50.096;20.082;2022-11-11T07:18:40;38.50;;;21.50;;
67640;SDS011;54434;50.096;20.082;2022-11-11T07:21:35;39.10;;;21.30;;
67640;SDS011;54434;50.096;20.082;2022-11-11T07:24:30;40.90;;;21.90;;
67640;SDS011;54434;50.096;20.082;2022-11-11T07:27:25;38.30;;;20.30;;
67640;SDS011;54434;50.096;20.082;2022-11-11T07:30:20;35.00;;;21.30;;
67640;SDS011;54434;50.096;20.082;2022-11-11T07:33:14;49.90;;;25.90;;
67640;SDS011;54434;50.096;20.082;2022-11-11T07:36:15;41.00;;;21.90;;
67640;SDS011;54434;50.096;20.082;2022-11-11T07:39:10;35.00;;;19.10;;
67640;SDS011;54434;50.096;20.082;2022-11-11T07:42:05;32.90;;;17.90;;
67640;SDS011;54434;50.096;20.082;2022-11-11T07:45:20;29.10;;;17.50;;
67640;SDS011;54434;50.096;20.082;2022-11-11T07:48:15;33.00;;;18.30;;
67640;SDS011;54434;50.096;20.082;2022-11-11T07:51:09;33.70;;;18.50;;
67640;SDS011;54434;50.096;20.082;2022-11-11T07:54:04;36.10;;;16.90;;
67640;SDS011;54434;50.096;20.082;2022-11-11T07:57:00;28.80;;;16.80;;
67640;SDS011;54434;50.096;20.082;2022-11-11T07:59:54;30.00;;;16.90;;
67640;SDS011;54434;50.096;20.082;2022-11-11T08:02:51;31.10;;;18.00;;
67640;SDS011;54434;50.096;20.082;2022-11-11T08:05:49;32.40;;;18.30;;
67640;SDS011;54434;50.096;20.082;2022-11-11T08:08:44;60.90;;;30.40;;
67640;SDS011;54434;50.096;20.082;2022-11-11T08:11:40;30.40;;;17.40;;
67640;SDS011;54434;50.096;20.082;2022-11-11T08:14:52;29.80;;;16.30;;
67640;SDS011;54434;50.096;20.082;2022-11-11T08:17:51;26.40;;;14.70;;
67640;SDS011;54434;50.096;20.082;2022-11-11T08:20:46;25.50;;;14.50;;
67640;SDS011;54434;50.096;20.082;2022-11-11T08:23:45;24.60;;;14.40;;
67640;SDS011;54434;50.096;20.082;2022-11-11T08:27:01;24.60;;;13.00;;
67640;SDS011;54434;50.096;20.082;2022-11-11T08:29:56;24.00;;;13.30;;
67640;SDS011;54434;50.096;20.082;2022-11-11T08:32:57;22.40;;;13.00;;
67640;SDS011;54434;50.096;20.082;2022-11-11T08:36:12;24.20;;;12.30;;
67640;SDS011;54434;50.096;20.082;2022-11-11T08:39:11;25.20;;;12.40;;
67640;SDS011;54434;50.096;20.082;2022-11-11T08:42:06;21.10;;;12.60;;
67640;SDS011;54434;50.096;20.082;2022-11-11T08:45:01;23.50;;;13.00;;
67640;SDS011;54434;50.096;20.082;2022-11-11T08:47:56;23.10;;;13.80;;
67640;SDS011;54434;50.096;20.082;2022-11-11T08:50:53;24.90;;;12.80;;
67640;SDS011;54434;50.096;20.082;2022-11-11T08:53:49;20.80;;;12.20;;
67640;SDS011;54434;50.096;20.082;2022-11-11T08:56:44;20.60;;;12.50;;
67640;SDS011;54434;50.096;20.082;2022-11-11T08:59:38;23.10;;;11.90;;
67640;SDS011;54434;50.096;20.082;2022-11-11T09:02:33;24.60;;;12.20;;
67640;SDS011;54434;50.096;20.082;2022-11-11T09:05:28;19.40;;;11.20;;
67640;SDS011;54434;50.096;20.082;2022-11-11T09:08:23;18.70;;;10.30;;
67640;SDS011;54434;50.096;20.082;2022-11-11T09:11:18;15.90;;;9.70;;
67640;SDS011;54434;50.096;20.082;2022-11-11T09:14:12;17.80;;;10.30;;
67640;SDS011;54434;50.096;20.082;2022-11-11T09:17:07;19.80;;;10.50;;
67640;SDS011;54434;50.096;20.082;2022-11-11T09:20:02;17.20;;;9.90;;
67640;SDS011;54434;50.096;20.082;2022-11-11T09:22:58;19.40;;;11.20;;
67640;SDS011;54434;50.096;20.082;2022-11-11T09:25:53;15.50;;;8.50;;
67640;SDS011;54434;50.096;20.082;2022-11-11T09:28:49;18.40;;;8.50;;
67640;SDS011;54434;50.096;20.082;2022-11-11T09:31:43;14.90;;;8.10;;
67640;SDS011;54434;50.096;20.082;2022-11-11T09:34:38;14.30;;;7.80;;
67640;SDS011;54434;50.096;20.082;2022-11-11T09:37:33;13.30;;;7.90;;
67640;SDS011;54434;50.096;20.082;2022-11-11T09:40:34;15.40;;;8.20;;
67640;SDS011;54434;50.096;20.082;2022-11-11T09:43:45;14.30;;;8.00;;
67640;SDS011;54434;50.096;20.082;2022-11-11T09:46:51;12.70;;;7.80;;
67640;SDS011;54434;50.096;20.082;2022-11-11T09:50:01;13.80;;;7.50;;
67640;SDS011;54434;50.096;20.082;2022-11-11T09:53:03;14.50;;;8.30;;
67640;SDS011;54434;50.096;20.082;2022-11-11T09:56:08;15.20;;;7.80;;
67640;SDS011;54434;50.096;20.082;2022-11-11T09:59:26;16.60;;;8.00;;
67640;SDS011;54434;50.096;20.082;2022-11-11T10:02:44;13.90;;;7.50;;
67640;SDS011;54434;50.096;20.082;2022-11-11T10:05:47;12.90;;;6.40;;
67640;SDS011;54434;50.096;20.082;2022-11-11T10:08:57;13.30;;;6.80;;
67640;SDS011;54434;50.096;20.082;2022-11-11T10:12:00;13.40;;;7.00;;
67640;SDS011;54434;50.096;20.082;2022-11-11T10:15:12;12.60;;;6.90;;
67640;SDS011;54434;50.096;20.082;2022-11-11T10:18:27;13.30;;;7.40;;
67640;SDS011;54434;50.096;20.082;2022-11-11T10:21:47;20.40;;;10.50;;
67640;SDS011;54434;50.096;20.082;2022-11-11T10:25:21;16.90;;;8.40;;
67640;SDS011;54434;50.096;20.082;2022-11-11T10:28:21;13.90;;;7.60;;
67640;SDS011;54434;50.096;20.082;2022-11-11T10:31:22;13.80;;;7.70;;
67640;SDS011;54434;50.096;20.082;2022-11-11T10:34:19;16.90;;;7.60;;
67640;SDS011;54434;50.096;20.082;2022-11-11T10:37:23;18.90;;;7.80;;
67640;SDS011;54434;50.096;20.082;2022-11-11T10:40:26;12.80;;;7.10;;
67640;SDS011;54434;50.096;20.082;2022-11-11T10:43:28;12.60;;;6.70;;
67640;SDS011;54434;50.096;20.082;2022-11-11T10:46:25;14.70;;;6.70;;
67640;SDS011;54434;50.096;20.082;2022-11-11T10:49:37;13.80;;;6.50;;
67640;SDS011;54434;50.096;20.082;2022-11-11T10:52:42;12.30;;;6.50;;
67640;SDS011;54434;50.096;20.082;2022-11-11T10:55:45;12.30;;;6.20;;
67640;SDS011;54434;50.096;20.082;2022-11-11T10:58:48;15.50;;;5.90;;
67640;SDS011;54434;50.096;20.082;2022-11-11T11:01:53;12.00;;;5.80;;
67640;SDS011;54434;50.096;20.082;2022-11-11T11:04:59;12.40;;;6.20;;
67640;SDS011;54434;50.096;20.082;2022-11-11T11:08:01;11.50;;;5.50;;
67640;SDS011;54434;50.096;20.082;2022-11-11T11:11:03;11.50;;;5.40;;
67640;SDS011;54434;50.096;20.082;2022-11-11T11:14:07;9.20;;;4.80;;
67640;SDS011;54434;50.096;20.082;2022-11-11T11:17:14;10.20;;;5.00;;
67640;SDS011;54434;50.096;20.082;2022-11-11T11:20:17;14.00;;;5.60;;
67640;SDS011;54434;50.096;20.082;2022-11-11T11:23:12;14.30;;;6.70;;
67640;SDS011;54434;50.096;20.082;2022-11-11T11:26:43;10.40;;;5.20;;
67640;SDS011;54434;50.096;20.082;2022-11-11T11:29:40;10.40;;;5.00;;
67640;SDS011;54434;50.096;20.082;2022-11-11T11:32:36;12.00;;;5.10;;
67640;SDS011;54434;50.096;20.082;2022-11-11T11:35:38;10.20;;;5.20;;
67640;SDS011;54434;50.096;20.082;2022-11-11T11:38:44;11.20;;;5.00;;
67640;SDS011;54434;50.096;20.082;2022-11-11T11:41:43;9.50;;;5.00;;
67640;SDS011;54434;50.096;20.082;2022-11-11T11:44:42;12.30;;;5.10;;
67640;SDS011;54434;50.096;20.082;2022-11-11T11:47:45;11.20;;;5.00;;
67640;SDS011;54434;50.096;20.082;2022-11-11T11:51:24;11.10;;;5.20;;
67640;SDS011;54434;50.096;20.082;2022-11-11T11:54:52;12.80;;;4.70;;
67640;SDS011;54434;50.096;20.082;2022-11-11T11:58:08;10.10;;;5.10;;
67640;SDS011;54434;50.096;20.082;2022-11-11T12:01:19;11.30;;;5.30;;
67640;SDS011;54434;50.096;20.082;2022-11-11T12:04:32;16.00;;;5.50;;
67640;SDS011;54434;50.096;20.082;2022-11-11T12:07:49;11.00;;;5.90;;
67640;SDS011;54434;50.096;20.082;2022-11-11T12:11:00;11.10;;;5.90;;
67640;SDS011;54434;50.096;20.082;2022-11-11T12:14:47;13.70;;;6.50;;
67640;SDS011;54434;50.096;20.082;2022-11-11T12:18:14;14.10;;;6.30;;
67640;SDS011;54434;50.096;20.082;2022-11-11T12:21:22;13.80;;;5.80;;
67640;SDS011;54434;50.096;20.082;2022-11-11T12:24:34;15.40;;;6.70;;
67640;SDS011;54434;50.096;20.082;2022-11-11T12:27:50;13.10;;;6.50;;
67640;SDS011;54434;50.096;20.082;2022-11-11T12:31:00;13.00;;;6.90;;
67640;SDS011;54434;50.096;20.082;2022-11-11T12:34:32;12.20;;;6.30;;
67640;SDS011;54434;50.096;20.082;2022-11-11T12:37:49;12.50;;;6.40;;
67640;SDS011;54434;50.096;20.082;2022-11-11T12:40:59;12.40;;;5.80;;
67640;SDS011;54434;50.096;20.082;2022-11-11T12:44:07;12.50;;;5.50;;
67640;SDS011;54434;50.096;20.082;2022-11-11T12:47:24;11.50;;;5.60;;
67640;SDS011;54434;50.096;20.082;2022-11-11T12:50:31;12.20;;;6.30;;
67640;SDS011;54434;50.096;20.082;2022-11-11T12:53:39;12.10;;;5.80;;
67640;SDS011;54434;50.096;20.082;2022-11-11T12:56:50;13.10;;;5.60;;
67640;SDS011;54434;50.096;20.082;2022-11-11T13:00:07;13.90;;;5.20;;
67640;SDS011;54434;50.096;20.082;2022-11-11T13:03:26;11.70;;;5.00;;
67640;SDS011;54434;50.096;20.082;2022-11-11T13:06:59;13.20;;;5.20;;
67640;SDS011;54434;50.096;20.082;2022-11-11T13:10:20;11.40;;;4.70;;
67640;SDS011;54434;50.096;20.082;2022-11-11T13:13:37;11.50;;;5.00;;
67640;SDS011;54434;50.096;20.082;2022-11-11T13:16:50;11.00;;;5.10;;
67640;SDS011;54434;50.096;20.082;2022-11-11T13:19:52;13.70;;;6.00;;
67640;SDS011;54434;50.096;20.082;2022-11-11T13:22:51;14.30;;;6.90;;
67640;SDS011;54434;50.096;20.082;2022-11-11T13:25:50;13.30;;;5.00;;
67640;SDS011;54434;50.096;20.082;2022-11-11T13:29:00;11.80;;;4.60;;
67640;SDS011;54434;50.096;20.082;2022-11-11T13:32:11;10.50;;;4.40;;
67640;SDS011;54434;50.096;20.082;2022-11-11T13:35:20;11.40;;;5.10;;
67640;SDS011;54434;50.096;20.082;2022-11-11T13:38:34;12.10;;;4.60;;
67640;SDS011;54434;50.096;20.082;2022-11-11T13:41:35;16.70;;;4.70;;
67640;SDS011;54434;50.096;20.082;2022-11-11T13:44:38;12.20;;;4.70;;
67640;SDS011;54434;50.096;20.082;2022-11-11T13:47:47;12.00;;;4.80;;
67640;SDS011;54434;50.096;20.082;2022-11-11T13:50:42;11.00;;;4.80;;
67640;SDS011;54434;50.096;20.082;2022-11-11T13:53:39;8.40;;;4.30;;
67640;SDS011;54434;50.096;20.082;2022-11-11T13:56:39;11.60;;;4.60;;
67640;SDS011;54434;50.096;20.082;2022-11-11T13:59:39;10.10;;;4.90;;
67640;SDS011;54434;50.096;20.082;2022-11-11T14:02:36;10.50;;;5.20;;
67640;SDS011;54434;50.096;20.082;2022-11-11T14:05:31;10.40;;;5.10;;
67640;SDS011;54434;50.096;20.082;2022-11-11T14:08:53;13.70;;;5.30;;
67640;SDS011;54434;50.096;20.082;2022-11-11T14:11:48;11.60;;;5.30;;
67640;SDS011;54434;50.096;20.082;2022-11-11T14:14:55;10.30;;;5.30;;
67640;SDS011;54434;50.096;20.082;2022-11-11T14:17:50;14.10;;;6.80;;
67640;SDS011;54434;50.096;20.082;2022-11-11T14:20:46;15.20;;;6.70;;
67640;SDS011;54434;50.096;20.082;2022-11-11T14:23:42;12.40;;;6.90;;
67640;SDS011;54434;50.096;20.082;2022-11-11T14:26:57;15.20;;;5.70;;
67640;SDS011;54434;50.096;20.082;2022-11-11T14:29:53;11.10;;;6.30;;
67640;SDS011;54434;50.096;20.082;2022-11-11T14:32:54;13.20;;;6.30;;
67640;SDS011;54434;50.096;20.082;2022-11-11T14:36:03;14.60;;;6.00;;
67640;SDS011;54434;50.096;20.082;2022-11-11T14:39:18;13.90;;;6.50;;
67640;SDS011;54434;50.096;20.082;2022-11-11T14:42:47;10.30;;;5.70;;
67640;SDS011;54434;50.096;20.082;2022-11-11T14:46:05;12.40;;;6.10;;
67640;SDS011;54434;50.096;20.082;2022-11-11T14:49:10;13.30;;;6.60;;
67640;SDS011;54434;50.096;20.082;2022-11-11T14:52:33;15.60;;;6.40;;
67640;SDS011;54434;50.096;20.082;2022-11-11T14:55:31;12.60;;;6.00;;
67640;SDS011;54434;50.096;20.082;2022-11-11T14:58:33;15.90;;;5.90;;
67640;SDS011;54434;50.096;20.082;2022-11-11T15:01:28;14.50;;;6.00;;
67640;SDS011;54434;50.096;20.082;2022-11-11T15:04:26;14.50;;;5.90;;
67640;SDS011;54434;50.096;20.082;2022-11-11T15:07:39;13.40;;;6.10;;
67640;SDS011;54434;50.096;20.082;2022-11-11T15:11:06;17.70;;;7.10;;
67640;SDS011;54434;50.096;20.082;2022-11-11T15:14:29;14.30;;;5.50;;
67640;SDS011;54434;50.096;20.082;2022-11-11T15:17:54;11.80;;;6.00;;
67640;SDS011;54434;50.096;20.082;2022-11-11T15:21:08;15.20;;;6.30;;
67640;SDS011;54434;50.096;20.082;2022-11-11T15:24:27;17.40;;;5.80;;
67640;SDS011;54434;50.096;20.082;2022-11-11T15:27:38;18.80;;;6.40;;
67640;SDS011;54434;50.096;20.082;2022-11-11T15:31:08;21.40;;;5.70;;
67640;SDS011;54434;50.096;20.082;2022-11-11T15:34:22;13.10;;;6.10;;
67640;SDS011;54434;50.096;20.082;2022-11-11T15:37:26;16.50;;;6.10;;
67640;SDS011;54434;50.096;20.082;2022-11-11T15:40:24;18.90;;;5.90;;
67640;SDS011;54434;50.096;20.082;2022-11-11T15:43:24;18.80;;;6.20;;
67640;SDS011;54434;50.096;20.082;2022-11-11T15:46:25;16.20;;;6.60;;
67640;SDS011;54434;50.096;20.082;2022-11-11T15:49:42;14.70;;;5.90;;
67640;SDS011;54434;50.096;20.082;2022-11-11T15:52:38;17.60;;;6.30;;
67640;SDS011;54434;50.096;20.082;2022-11-11T15:55:35;14.80;;;6.10;;
67640;SDS011;54434;50.096;20.082;2022-11-11T15:58:33;16.10;;;6.70;;
67640;SDS011;54434;50.096;20.082;2022-11-11T16:01:29;13.40;;;6.40;;
67640;SDS011;54434;50.096;20.082;2022-11-11T16:04:25;14.30;;;6.80;;
67640;SDS011;54434;50.096;20.082;2022-11-11T16:07:43;15.60;;;7.50;;
67640;SDS011;54434;50.096;20.082;2022-11-11T16:10:43;15.80;;;7.10;;
67640;SDS011;54434;50.096;20.082;2022-11-11T16:13:41;16.20;;;6.50;;
67640;SDS011;54434;50.096;20.082;2022-11-11T16:16:48;17.60;;;6.80;;
67640;SDS011;54434;50.096;20.082;2022-11-11T16:19:44;19.20;;;6.80;;
67640;SDS011;54434;50.096;20.082;2022-11-11T16:22:43;13.10;;;6.90;;
67640;SDS011;54434;50.096;20.082;2022-11-11T16:25:41;18.40;;;9.10;;
67640;SDS011;54434;50.096;20.082;2022-11-11T16:28:45;21.40;;;9.50;;
67640;SDS011;54434;50.096;20.082;2022-11-11T16:31:43;20.40;;;9.80;;
67640;SDS011;54434;50.096;20.082;2022-11-11T16:34:45;19.20;;;8.40;;
67640;SDS011;54434;50.096;20.082;2022-11-11T16:37:54;13.50;;;8.00;;
67640;SDS011;54434;50.096;20.082;2022-11-11T16:40:50;39.30;;;19.70;;
67640;SDS011;54434;50.096;20.082;2022-11-11T16:43:45;42.10;;;20.90;;
67640;SDS011;54434;50.096;20.082;2022-11-11T16:46:43;25.00;;;12.50;;
67640;SDS011;54434;50.096;20.082;2022-11-11T16:49:39;19.70;;;9.60;;
67640;SDS011;54434;50.096;20.082;2022-11-11T16:52:43;20.90;;;9.20;;
67640;SDS011;54434;50.096;20.082;2022-11-11T16:55:46;21.50;;;9.00;;
67640;SDS011;54434;50.096;20.082;2022-11-11T16:58:41;18.60;;;9.90;;
67640;SDS011;54434;50.096;20.082;2022-11-11T17:01:44;21.00;;;10.60;;
67640;SDS011;54434;50.096;20.082;2022-11-11T17:04:50;21.30;;;10.10;;
67640;SDS011;54434;50.096;20.082;2022-11-11T17:07:47;20.00;;;10.20;;
67640;SDS011;54434;50.096;20.082;2022-11-11T17:10:43;18.70;;;9.60;;
67640;SDS011;54434;50.096;20.082;2022-11-11T17:13:38;28.10;;;11.10;;
67640;SDS011;54434;50.096;20.082;2022-11-11T17:16:34;20.90;;;10.50;;
67640;SDS011;54434;50.096;20.082;2022-11-11T17:19:30;22.40;;;12.00;;
67640;SDS011;54434;50.096;20.082;2022-11-11T17:22:25;21.90;;;12.00;;
67640;SDS011;54434;50.096;20.082;2022-11-11T17:25:21;27.30;;;14.00;;
67640;SDS011;54434;50.096;20.082;2022-11-11T17:28:16;24.10;;;12.00;;
67640;SDS011;54434;50.096;20.082;2022-11-11T17:31:12;22.10;;;10.90;;
67640;SDS011;54434;50.096;20.082;2022-11-11T17:34:11;20.80;;;10.10;;
67640;SDS011;54434;50.096;20.082;2022-11-11T17:37:06;22.50;;;11.10;;